createdAt,value
2017-12-03T00:00:00.359Z,926
2017-12-03T00:00:12.970Z,926.06
2017-12-03T00:00:25.612Z,926.06
2017-12-03T00:00:38.242Z,926.08
2017-12-03T00:00:51.335Z,926.06
2017-12-03T00:01:04.393Z,926
2017-12-03T00:01:17.539Z,926.05
2017-12-03T00:01:30.620Z,926.03
2017-12-03T00:01:43.785Z,926.08
2017-12-03T00:01:56.908Z,926.07
2017-12-03T00:02:09.740Z,926.07
2017-12-03T00:02:22.368Z,926.06
2017-12-03T00:02:35.436Z,926.06
2017-12-03T00:02:48.045Z,926.12
2017-12-03T00:03:01.186Z,926.05
2017-12-03T00:03:13.881Z,926.06
2017-12-03T00:03:27.004Z,926.12
2017-12-03T00:03:40.159Z,926.11
2017-12-03T00:03:53.225Z,926.1
2017-12-03T00:04:05.862Z,926.04
2017-12-03T00:04:19.009Z,926.11
2017-12-03T00:04:32.196Z,926.1
2017-12-03T00:04:45.314Z,926.05
2017-12-03T00:04:58.448Z,926.09
2017-12-03T00:05:11.552Z,926.11
2017-12-03T00:05:24.646Z,926.11
2017-12-03T00:05:37.791Z,926.16
2017-12-03T00:05:50.902Z,926.11
2017-12-03T00:06:03.952Z,926.12
2017-12-03T00:06:16.564Z,926.1
2017-12-03T00:06:29.646Z,926.18
2017-12-03T00:06:42.724Z,926.11
2017-12-03T00:06:55.776Z,926.11
2017-12-03T00:07:08.864Z,926.11
2017-12-03T00:07:21.924Z,926.15
2017-12-03T00:07:34.996Z,926.22
2017-12-03T00:07:48.123Z,926.12
2017-12-03T00:08:01.234Z,926.18
2017-12-03T00:08:13.860Z,926.11
2017-12-03T00:08:27.010Z,926.12
2017-12-03T00:08:40.092Z,926.12
2017-12-03T00:08:53.150Z,926.13
2017-12-03T00:09:06.263Z,926.13
2017-12-03T00:09:18.969Z,926.14
2017-12-03T00:09:31.622Z,926.11
2017-12-03T00:09:44.204Z,926.13
2017-12-03T00:09:57.307Z,926.16
2017-12-03T00:10:09.941Z,926.17
2017-12-03T00:10:22.566Z,926.16
2017-12-03T00:10:35.636Z,926.15
2017-12-03T00:10:48.696Z,926.16
2017-12-03T00:11:01.292Z,926.17
2017-12-03T00:11:14.412Z,926.13
2017-12-03T00:11:27.469Z,926.15
2017-12-03T00:11:40.647Z,926.18
2017-12-03T00:11:53.712Z,926.23
2017-12-03T00:12:06.766Z,926.19
2017-12-03T00:12:18.895Z,926.18
2017-12-03T00:12:31.948Z,926.16
2017-12-03T00:12:45.109Z,926.19
2017-12-03T00:12:58.170Z,926.21
2017-12-03T00:13:11.341Z,926.19
2017-12-03T00:13:24.476Z,926.14
2017-12-03T00:13:37.545Z,926.18
2017-12-03T00:13:50.158Z,926.25
2017-12-03T00:14:03.277Z,926.22
2017-12-03T00:14:16.887Z,926.24
2017-12-03T00:14:29.943Z,926.19
2017-12-03T00:14:42.559Z,926.29
2017-12-03T00:14:55.665Z,926.26
2017-12-03T00:15:08.767Z,926.27
2017-12-03T00:15:21.386Z,926.27
2017-12-03T00:15:33.955Z,926.27
2017-12-03T00:15:47.059Z,926.26
2017-12-03T00:16:00.175Z,926.25
2017-12-03T00:16:12.816Z,926.3
2017-12-03T00:16:25.902Z,926.25
2017-12-03T00:16:38.505Z,926.27
2017-12-03T00:16:51.598Z,926.28
2017-12-03T00:17:04.689Z,926.4
2017-12-03T00:17:17.283Z,926.3
2017-12-03T00:17:29.908Z,926.31
2017-12-03T00:17:42.507Z,926.28
2017-12-03T00:17:55.581Z,926.26
2017-12-03T00:18:08.721Z,926.28
2017-12-03T00:18:21.358Z,926.31
2017-12-03T00:18:33.489Z,926.31
2017-12-03T00:18:46.129Z,926.33
2017-12-03T00:18:59.227Z,926.32
2017-12-03T00:19:12.432Z,926.32
2017-12-03T00:19:25.047Z,926.33
2017-12-03T00:19:38.191Z,926.3
2017-12-03T00:19:51.272Z,926.31
2017-12-03T00:20:03.903Z,926.31
2017-12-03T00:20:17.015Z,926.36
2017-12-03T00:20:30.151Z,926.37
2017-12-03T00:20:43.252Z,926.33
2017-12-03T00:20:55.886Z,926.34
2017-12-03T00:21:08.493Z,926.35
2017-12-03T00:21:21.571Z,926.35
2017-12-03T00:21:34.570Z,926.38
2017-12-03T00:21:47.692Z,926.34
2017-12-03T00:22:00.300Z,926.35
2017-12-03T00:22:13.391Z,926.33
2017-12-03T00:22:26.442Z,926.35
2017-12-03T00:22:39.652Z,926.34
2017-12-03T00:22:52.773Z,926.35
2017-12-03T00:23:05.412Z,926.36
2017-12-03T00:23:18.525Z,926.33
2017-12-03T00:23:31.582Z,926.35
2017-12-03T00:23:44.238Z,926.36
2017-12-03T00:23:57.325Z,926.36
2017-12-03T00:24:10.512Z,926.4
2017-12-03T00:24:23.608Z,926.32
2017-12-03T00:24:36.214Z,926.32
2017-12-03T00:24:49.321Z,926.32
2017-12-03T00:25:01.483Z,926.31
2017-12-03T00:25:14.607Z,926.33
2017-12-03T00:25:26.770Z,926.29
2017-12-03T00:25:39.876Z,926.33
2017-12-03T00:25:52.480Z,926.31
2017-12-03T00:26:05.618Z,926.33
2017-12-03T00:26:18.283Z,926.34
2017-12-03T00:26:30.912Z,926.34
2017-12-03T00:26:43.514Z,926.31
2017-12-03T00:26:56.597Z,926.32
2017-12-03T00:27:09.716Z,926.32
2017-12-03T00:27:22.348Z,926.31
2017-12-03T00:27:35.005Z,926.34
2017-12-03T00:27:48.070Z,926.31
2017-12-03T00:28:01.196Z,926.34
2017-12-03T00:28:14.326Z,926.34
2017-12-03T00:28:27.473Z,926.35
2017-12-03T00:28:40.564Z,926.37
2017-12-03T00:28:53.219Z,926.31
2017-12-03T00:29:06.287Z,926.33
2017-12-03T00:29:18.887Z,926.33
2017-12-03T00:29:32.979Z,926.34
2017-12-03T00:29:45.096Z,926.34
2017-12-03T00:29:57.715Z,926.32
2017-12-03T00:30:09.409Z,926.35
2017-12-03T00:30:22.553Z,926.34
2017-12-03T00:30:35.648Z,926.38
2017-12-03T00:30:48.743Z,926.33
2017-12-03T00:31:01.822Z,926.34
2017-12-03T00:31:14.924Z,926.32
2017-12-03T00:31:28.023Z,926.38
2017-12-03T00:31:41.152Z,926.35
2017-12-03T00:31:54.258Z,926.37
2017-12-03T00:32:06.900Z,926.4
2017-12-03T00:32:19.493Z,926.39
2017-12-03T00:32:32.612Z,926.36
2017-12-03T00:32:45.212Z,926.36
2017-12-03T00:32:57.898Z,926.36
2017-12-03T00:33:10.989Z,926.38
2017-12-03T00:33:24.062Z,926.36
2017-12-03T00:33:36.315Z,926.37
2017-12-03T00:33:49.013Z,926.37
2017-12-03T00:34:01.677Z,926.38
2017-12-03T00:34:14.255Z,926.41
2017-12-03T00:34:27.511Z,926.39
2017-12-03T00:34:40.631Z,926.4
2017-12-03T00:34:53.294Z,926.41
2017-12-03T00:35:05.893Z,926.39
2017-12-03T00:35:20.400Z,926.4
2017-12-03T00:35:33.495Z,926.39
2017-12-03T00:35:46.605Z,926.4
2017-12-03T00:35:59.677Z,926.41
2017-12-03T00:36:12.246Z,926.41
2017-12-03T00:36:25.358Z,926.35
2017-12-03T00:36:38.470Z,926.38
2017-12-03T00:36:51.524Z,926.39
2017-12-03T00:37:04.654Z,926.39
2017-12-03T00:37:17.754Z,926.4
2017-12-03T00:37:30.348Z,926.39
2017-12-03T00:37:43.441Z,926.4
2017-12-03T00:37:56.108Z,926.34
2017-12-03T00:38:09.202Z,926.33
2017-12-03T00:38:22.360Z,926.39
2017-12-03T00:38:35.462Z,926.37
2017-12-03T00:38:48.586Z,926.39
2017-12-03T00:39:01.691Z,926.4
2017-12-03T00:39:14.260Z,926.37
2017-12-03T00:39:26.921Z,926.34
2017-12-03T00:39:40.003Z,926.36
2017-12-03T00:39:52.653Z,926.35
2017-12-03T00:40:05.717Z,926.33
2017-12-03T00:40:18.318Z,926.36
2017-12-03T00:40:30.993Z,926.33
2017-12-03T00:40:44.094Z,926.31
2017-12-03T00:40:57.213Z,926.31
2017-12-03T00:41:09.798Z,926.38
2017-12-03T00:41:22.472Z,926.35
2017-12-03T00:41:34.649Z,926.34
2017-12-03T00:41:47.748Z,926.31
2017-12-03T00:42:00.892Z,926.37
2017-12-03T00:42:13.546Z,926.31
2017-12-03T00:42:26.714Z,926.36
2017-12-03T00:42:39.827Z,926.33
2017-12-03T00:42:52.425Z,926.38
2017-12-03T00:43:05.061Z,926.38
2017-12-03T00:43:17.635Z,926.32
2017-12-03T00:43:30.248Z,926.32
2017-12-03T00:43:43.368Z,926.36
2017-12-03T00:43:56.504Z,926.34
2017-12-03T00:44:09.176Z,926.34
2017-12-03T00:44:22.238Z,926.37
2017-12-03T00:44:36.129Z,926.36
2017-12-03T00:44:49.238Z,926.36
2017-12-03T00:45:02.331Z,926.38
2017-12-03T00:45:15.421Z,926.39
2017-12-03T00:45:28.514Z,926.38
2017-12-03T00:45:41.564Z,926.38
2017-12-03T00:45:54.647Z,926.42
2017-12-03T00:46:07.216Z,926.36
2017-12-03T00:46:20.327Z,926.38
2017-12-03T00:46:33.426Z,926.38
2017-12-03T00:46:46.498Z,926.4
2017-12-03T00:46:59.626Z,926.34
2017-12-03T00:47:12.344Z,926.41
2017-12-03T00:47:24.531Z,926.4
2017-12-03T00:47:37.576Z,926.4
2017-12-03T00:47:50.729Z,926.41
2017-12-03T00:48:02.886Z,926.4
2017-12-03T00:48:15.526Z,926.36
2017-12-03T00:48:28.646Z,926.38
2017-12-03T00:48:41.284Z,926.38
2017-12-03T00:48:54.354Z,926.41
2017-12-03T00:49:07.504Z,926.39
2017-12-03T00:49:20.079Z,926.39
2017-12-03T00:49:33.230Z,926.42
2017-12-03T00:49:46.419Z,926.41
2017-12-03T00:49:59.073Z,926.44
2017-12-03T00:50:12.198Z,926.45
2017-12-03T00:50:25.271Z,926.43
2017-12-03T00:50:38.351Z,926.41
2017-12-03T00:50:51.425Z,926.44
2017-12-03T00:51:04.087Z,926.43
2017-12-03T00:51:17.203Z,926.44
2017-12-03T00:51:30.384Z,926.43
2017-12-03T00:51:43.495Z,926.51
2017-12-03T00:51:56.628Z,926.45
2017-12-03T00:52:09.773Z,926.47
2017-12-03T00:52:22.888Z,926.41
2017-12-03T00:52:36.017Z,926.45
2017-12-03T00:52:49.133Z,926.46
2017-12-03T00:53:02.222Z,926.46
2017-12-03T00:53:15.327Z,926.45
2017-12-03T00:53:28.424Z,926.47
2017-12-03T00:53:41.575Z,926.44
2017-12-03T00:53:54.177Z,926.41
2017-12-03T00:54:07.305Z,926.44
2017-12-03T00:54:20.411Z,926.44
2017-12-03T00:54:33.519Z,926.43
2017-12-03T00:54:46.645Z,926.43
2017-12-03T00:54:59.794Z,926.46
2017-12-03T00:55:12.920Z,926.48
2017-12-03T00:55:26.088Z,926.42
2017-12-03T00:55:39.277Z,926.44
2017-12-03T00:55:52.379Z,926.44
2017-12-03T00:56:05.439Z,926.42
2017-12-03T00:56:18.551Z,926.44
2017-12-03T00:56:31.632Z,926.45
2017-12-03T00:56:44.690Z,926.42
2017-12-03T00:56:57.343Z,926.44
2017-12-03T00:57:09.494Z,926.48
2017-12-03T00:57:22.546Z,926.46
2017-12-03T00:57:35.676Z,926.48
2017-12-03T00:57:48.291Z,926.48
2017-12-03T00:58:01.417Z,926.46
2017-12-03T00:58:14.014Z,926.48
2017-12-03T00:58:27.142Z,926.45
2017-12-03T00:58:39.765Z,926.49
2017-12-03T00:58:52.357Z,926.45
2017-12-03T00:59:05.435Z,926.5
2017-12-03T00:59:18.066Z,926.47
2017-12-03T00:59:31.188Z,926.46
2017-12-03T00:59:44.466Z,926.48
2017-12-03T00:59:57.572Z,926.45
2017-12-03T01:00:10.244Z,926.48
2017-12-03T01:00:23.336Z,926.46
2017-12-03T01:00:36.001Z,926.48
2017-12-03T01:00:49.178Z,926.47
2017-12-03T01:01:02.304Z,926.48
2017-12-03T01:01:15.391Z,926.48
2017-12-03T01:01:27.995Z,926.51
2017-12-03T01:01:40.655Z,926.5
2017-12-03T01:01:53.298Z,926.47
2017-12-03T01:02:06.446Z,926.49
2017-12-03T01:02:19.076Z,926.48
2017-12-03T01:02:32.166Z,926.52
2017-12-03T01:02:45.329Z,926.5
2017-12-03T01:02:58.725Z,926.53
2017-12-03T01:03:11.833Z,926.52
2017-12-03T01:03:24.504Z,926.49
2017-12-03T01:03:37.620Z,926.49
2017-12-03T01:03:50.268Z,926.52
2017-12-03T01:04:02.889Z,926.54
2017-12-03T01:04:16.019Z,926.51
2017-12-03T01:04:29.116Z,926.49
2017-12-03T01:04:42.478Z,926.46
2017-12-03T01:04:55.571Z,926.53
2017-12-03T01:05:08.616Z,926.5
2017-12-03T01:05:21.270Z,926.49
2017-12-03T01:05:34.386Z,926.52
2017-12-03T01:05:47.488Z,926.53
2017-12-03T01:06:00.132Z,926.53
2017-12-03T01:06:12.753Z,926.53
2017-12-03T01:06:25.394Z,926.51
2017-12-03T01:06:37.521Z,926.54
2017-12-03T01:06:50.583Z,926.51
2017-12-03T01:07:03.640Z,926.51
2017-12-03T01:07:16.734Z,926.53
2017-12-03T01:07:29.834Z,926.5
2017-12-03T01:07:42.964Z,926.5
2017-12-03T01:07:56.116Z,926.48
2017-12-03T01:08:09.246Z,926.51
2017-12-03T01:08:22.313Z,926.53
2017-12-03T01:08:35.424Z,926.5
2017-12-03T01:08:48.489Z,926.54
2017-12-03T01:09:01.584Z,926.5
2017-12-03T01:09:14.650Z,926.53
2017-12-03T01:09:27.725Z,926.54
2017-12-03T01:09:40.854Z,926.53
2017-12-03T01:09:53.966Z,926.55
2017-12-03T01:10:07.069Z,926.55
2017-12-03T01:10:20.111Z,926.52
2017-12-03T01:10:33.216Z,926.54
2017-12-03T01:10:46.298Z,926.54
2017-12-03T01:10:58.925Z,926.54
2017-12-03T01:11:11.565Z,926.52
2017-12-03T01:11:23.689Z,926.56
2017-12-03T01:11:36.290Z,926.51
2017-12-03T01:11:49.392Z,926.52
2017-12-03T01:12:02.524Z,926.53
2017-12-03T01:12:15.671Z,926.52
2017-12-03T01:12:28.751Z,926.52
2017-12-03T01:12:41.859Z,926.52
2017-12-03T01:12:54.493Z,926.56
2017-12-03T01:13:07.570Z,926.54
2017-12-03T01:13:20.678Z,926.54
2017-12-03T01:13:33.755Z,926.53
2017-12-03T01:13:46.880Z,926.55
2017-12-03T01:13:59.988Z,926.53
2017-12-03T01:14:12.531Z,926.56
2017-12-03T01:14:25.578Z,926.53
2017-12-03T01:14:38.636Z,926.55
2017-12-03T01:14:52.520Z,926.54
2017-12-03T01:15:05.625Z,926.53
2017-12-03T01:15:18.762Z,926.56
2017-12-03T01:15:31.374Z,926.5
2017-12-03T01:15:44.048Z,926.56
2017-12-03T01:15:56.657Z,926.56
2017-12-03T01:16:09.274Z,926.55
2017-12-03T01:16:21.858Z,926.56
2017-12-03T01:16:34.947Z,926.53
2017-12-03T01:16:48.002Z,926.55
2017-12-03T01:17:01.123Z,926.57
2017-12-03T01:17:14.249Z,926.52
2017-12-03T01:17:27.350Z,926.54
2017-12-03T01:17:40.471Z,926.53
2017-12-03T01:17:53.579Z,926.53
2017-12-03T01:18:05.765Z,926.51
2017-12-03T01:18:18.378Z,926.52
2017-12-03T01:18:31.490Z,926.52
2017-12-03T01:18:44.672Z,926.54
2017-12-03T01:18:57.313Z,926.51
2017-12-03T01:19:09.917Z,926.48
2017-12-03T01:19:23.012Z,926.53
2017-12-03T01:19:36.127Z,926.51
2017-12-03T01:19:49.297Z,926.52
2017-12-03T01:20:02.377Z,926.49
2017-12-03T01:20:15.018Z,926.53
2017-12-03T01:20:28.084Z,926.5
2017-12-03T01:20:40.734Z,926.53
2017-12-03T01:20:53.817Z,926.52
2017-12-03T01:21:06.444Z,926.51
2017-12-03T01:21:19.106Z,926.48
2017-12-03T01:21:32.180Z,926.5
2017-12-03T01:21:45.279Z,926.52
2017-12-03T01:21:57.920Z,926.51
2017-12-03T01:22:11.097Z,926.49
2017-12-03T01:22:24.150Z,926.5
2017-12-03T01:22:37.257Z,926.49
2017-12-03T01:22:50.334Z,926.53
2017-12-03T01:23:02.939Z,926.47
2017-12-03T01:23:15.588Z,926.48
2017-12-03T01:23:28.691Z,926.46
2017-12-03T01:23:41.816Z,926.48
2017-12-03T01:23:54.959Z,926.49
2017-12-03T01:24:07.586Z,926.47
2017-12-03T01:24:20.220Z,926.51
2017-12-03T01:24:32.853Z,926.48
2017-12-03T01:24:45.970Z,926.49
2017-12-03T01:24:58.628Z,926.46
2017-12-03T01:25:11.768Z,926.47
2017-12-03T01:25:24.907Z,926.46
2017-12-03T01:25:38.059Z,926.48
2017-12-03T01:25:51.130Z,926.45
2017-12-03T01:26:04.248Z,926.49
2017-12-03T01:26:17.298Z,926.44
2017-12-03T01:26:30.444Z,926.45
2017-12-03T01:26:43.492Z,926.48
2017-12-03T01:26:56.131Z,926.49
2017-12-03T01:27:08.734Z,926.51
2017-12-03T01:27:21.794Z,926.46
2017-12-03T01:27:34.967Z,926.46
2017-12-03T01:27:48.129Z,926.44
2017-12-03T01:28:01.207Z,926.46
2017-12-03T01:28:13.819Z,926.47
2017-12-03T01:28:26.892Z,926.49
2017-12-03T01:28:39.968Z,926.48
2017-12-03T01:28:52.606Z,926.46
2017-12-03T01:29:05.684Z,926.46
2017-12-03T01:29:18.816Z,926.45
2017-12-03T01:29:31.939Z,926.44
2017-12-03T01:29:45.042Z,926.48
2017-12-03T01:29:58.548Z,926.42
2017-12-03T01:30:11.634Z,926.46
2017-12-03T01:30:24.730Z,926.47
2017-12-03T01:30:37.825Z,926.46
2017-12-03T01:30:50.440Z,926.42
2017-12-03T01:31:02.576Z,926.44
2017-12-03T01:31:15.695Z,926.5
2017-12-03T01:31:28.769Z,926.41
2017-12-03T01:31:41.905Z,926.4
2017-12-03T01:31:55.120Z,926.47
2017-12-03T01:32:08.224Z,926.44
2017-12-03T01:32:21.322Z,926.41
2017-12-03T01:32:33.966Z,926.43
2017-12-03T01:32:46.642Z,926.39
2017-12-03T01:32:59.758Z,926.41
2017-12-03T01:33:12.821Z,926.43
2017-12-03T01:33:25.894Z,926.43
2017-12-03T01:33:39.010Z,926.43
2017-12-03T01:33:51.633Z,926.46
2017-12-03T01:34:04.807Z,926.35
2017-12-03T01:34:17.898Z,926.4
2017-12-03T01:34:30.548Z,926.41
2017-12-03T01:34:43.207Z,926.39
2017-12-03T01:34:55.817Z,926.39
2017-12-03T01:35:08.910Z,926.41
2017-12-03T01:35:21.492Z,926.39
2017-12-03T01:35:34.575Z,926.4
2017-12-03T01:35:47.215Z,926.36
2017-12-03T01:36:00.288Z,926.39
2017-12-03T01:36:13.416Z,926.37
2017-12-03T01:36:26.500Z,926.39
2017-12-03T01:36:39.650Z,926.39
2017-12-03T01:36:52.307Z,926.36
2017-12-03T01:37:03.968Z,926.39
2017-12-03T01:37:17.052Z,926.4
2017-12-03T01:37:30.159Z,926.39
2017-12-03T01:37:43.280Z,926.42
2017-12-03T01:37:56.403Z,926.38
2017-12-03T01:38:09.058Z,926.39
2017-12-03T01:38:21.669Z,926.4
2017-12-03T01:38:34.772Z,926.37
2017-12-03T01:38:47.449Z,926.39
2017-12-03T01:39:00.537Z,926.36
2017-12-03T01:39:13.179Z,926.38
2017-12-03T01:39:25.376Z,926.39
2017-12-03T01:39:38.468Z,926.39
2017-12-03T01:39:51.659Z,926.45
2017-12-03T01:40:04.279Z,926.41
2017-12-03T01:40:16.967Z,926.43
2017-12-03T01:40:29.603Z,926.45
2017-12-03T01:40:42.705Z,926.42
2017-12-03T01:40:55.746Z,926.38
2017-12-03T01:41:08.882Z,926.42
2017-12-03T01:41:22.012Z,926.38
2017-12-03T01:41:35.127Z,926.41
2017-12-03T01:41:48.224Z,926.4
2017-12-03T01:42:01.308Z,926.39
2017-12-03T01:42:13.946Z,926.38
2017-12-03T01:42:27.075Z,926.39
2017-12-03T01:42:40.183Z,926.4
2017-12-03T01:42:52.804Z,926.38
2017-12-03T01:43:05.879Z,926.35
2017-12-03T01:43:18.992Z,926.39
2017-12-03T01:43:32.072Z,926.38
2017-12-03T01:43:45.187Z,926.35
2017-12-03T01:43:58.317Z,926.34
2017-12-03T01:44:11.445Z,926.32
2017-12-03T01:44:24.141Z,926.31
2017-12-03T01:44:37.209Z,926.35
2017-12-03T01:44:50.318Z,926.33
2017-12-03T01:45:03.398Z,926.33
2017-12-03T01:45:16.515Z,926.31
2017-12-03T01:45:29.656Z,926.32
2017-12-03T01:45:42.775Z,926.31
2017-12-03T01:45:55.910Z,926.34
2017-12-03T01:46:08.614Z,926.33
2017-12-03T01:46:21.711Z,926.36
2017-12-03T01:46:34.850Z,926.34
2017-12-03T01:46:47.885Z,926.37
2017-12-03T01:47:01.027Z,926.4
2017-12-03T01:47:13.677Z,926.36
2017-12-03T01:47:26.546Z,926.38
2017-12-03T01:47:39.142Z,926.37
2017-12-03T01:47:52.218Z,926.37
2017-12-03T01:48:05.276Z,926.37
2017-12-03T01:48:17.926Z,926.37
2017-12-03T01:48:31.008Z,926.34
2017-12-03T01:48:44.080Z,926.37
2017-12-03T01:48:57.204Z,926.38
2017-12-03T01:49:09.876Z,926.35
2017-12-03T01:49:23.019Z,926.35
2017-12-03T01:49:36.148Z,926.35
2017-12-03T01:49:49.259Z,926.34
2017-12-03T01:50:02.029Z,926.4
2017-12-03T01:50:14.725Z,926.36
2017-12-03T01:50:27.370Z,926.38
2017-12-03T01:50:40.510Z,926.34
2017-12-03T01:50:53.639Z,926.34
2017-12-03T01:51:05.831Z,926.36
2017-12-03T01:51:18.964Z,926.34
2017-12-03T01:51:31.575Z,926.33
2017-12-03T01:51:44.714Z,926.35
2017-12-03T01:51:57.853Z,926.38
2017-12-03T01:52:10.495Z,926.37
2017-12-03T01:52:23.100Z,926.35
2017-12-03T01:52:36.223Z,926.37
2017-12-03T01:52:49.349Z,926.37
2017-12-03T01:53:02.405Z,926.36
2017-12-03T01:53:14.997Z,926.36
2017-12-03T01:53:28.194Z,926.34
2017-12-03T01:53:41.342Z,926.33
2017-12-03T01:53:54.439Z,926.31
2017-12-03T01:54:07.528Z,926.33
2017-12-03T01:54:20.693Z,926.35
2017-12-03T01:54:33.851Z,926.39
2017-12-03T01:54:46.934Z,926.38
2017-12-03T01:55:00.317Z,926.36
2017-12-03T01:55:13.145Z,926.34
2017-12-03T01:55:26.265Z,926.37
2017-12-03T01:55:39.404Z,926.36
2017-12-03T01:55:52.548Z,926.37
2017-12-03T01:56:05.166Z,926.36
2017-12-03T01:56:17.378Z,926.34
2017-12-03T01:56:31.928Z,926.4
2017-12-03T01:56:45.033Z,926.36
2017-12-03T01:56:58.140Z,926.36
2017-12-03T01:57:11.278Z,926.38
2017-12-03T01:57:24.338Z,926.37
2017-12-03T01:57:37.434Z,926.35
2017-12-03T01:57:50.622Z,926.36
2017-12-03T01:58:03.792Z,926.35
2017-12-03T01:58:15.945Z,926.36
2017-12-03T01:58:28.578Z,926.35
2017-12-03T01:58:41.700Z,926.34
2017-12-03T01:58:54.785Z,926.33
2017-12-03T01:59:06.969Z,926.32
2017-12-03T01:59:19.597Z,926.33
2017-12-03T01:59:31.710Z,926.32
2017-12-03T01:59:44.787Z,926.33
2017-12-03T01:59:57.869Z,926.33
2017-12-03T02:00:11.613Z,926.34
2017-12-03T02:00:24.265Z,926.31
2017-12-03T02:00:37.390Z,926.35
2017-12-03T02:00:50.531Z,926.32
2017-12-03T02:01:03.702Z,926.32
2017-12-03T02:01:16.326Z,926.28
2017-12-03T02:01:29.384Z,926.3
2017-12-03T02:01:42.007Z,926.34
2017-12-03T02:01:55.109Z,926.3
2017-12-03T02:02:08.172Z,926.29
2017-12-03T02:02:21.264Z,926.27
2017-12-03T02:02:33.461Z,926.25
2017-12-03T02:02:46.613Z,926.25
2017-12-03T02:02:59.732Z,926.25
2017-12-03T02:03:12.342Z,926.24
2017-12-03T02:03:24.985Z,926.17
2017-12-03T02:03:38.088Z,926.2
2017-12-03T02:03:51.256Z,926.2
2017-12-03T02:04:03.907Z,926.18
2017-12-03T02:04:16.100Z,926.17
2017-12-03T02:04:29.199Z,926.14
2017-12-03T02:04:42.247Z,926.18
2017-12-03T02:04:55.354Z,926.18
2017-12-03T02:05:08.461Z,926.16
2017-12-03T02:05:21.164Z,926.19
2017-12-03T02:05:34.256Z,926.17
2017-12-03T02:05:47.339Z,926.19
2017-12-03T02:06:00.432Z,926.16
2017-12-03T02:06:13.006Z,926.15
2017-12-03T02:06:26.135Z,926.15
2017-12-03T02:06:39.399Z,926.16
2017-12-03T02:06:52.584Z,926.12
2017-12-03T02:07:05.690Z,926.12
2017-12-03T02:07:18.344Z,926.11
2017-12-03T02:07:31.414Z,926.11
2017-12-03T02:07:44.517Z,926.12
2017-12-03T02:07:57.607Z,926.11
2017-12-03T02:08:10.286Z,926.14
2017-12-03T02:08:22.915Z,926.13
2017-12-03T02:08:36.024Z,926.12
2017-12-03T02:08:49.123Z,926.12
2017-12-03T02:09:02.239Z,926.16
2017-12-03T02:09:14.858Z,926.14
2017-12-03T02:09:27.038Z,926.17
2017-12-03T02:09:38.699Z,926.15
2017-12-03T02:09:51.772Z,926.17
2017-12-03T02:10:04.421Z,926.17
2017-12-03T02:10:17.626Z,926.16
2017-12-03T02:10:30.742Z,926.18
2017-12-03T02:10:43.409Z,926.17
2017-12-03T02:10:56.040Z,926.15
2017-12-03T02:11:08.689Z,926.19
2017-12-03T02:11:21.303Z,926.16
2017-12-03T02:11:34.418Z,926.13
2017-12-03T02:11:47.554Z,926.13
2017-12-03T02:12:00.222Z,926.19
2017-12-03T02:12:13.316Z,926.15
2017-12-03T02:12:26.400Z,926.16
2017-12-03T02:12:38.523Z,926.17
2017-12-03T02:12:51.618Z,926.19
2017-12-03T02:13:04.290Z,926.15
2017-12-03T02:13:17.382Z,926.17
2017-12-03T02:13:30.484Z,926.14
2017-12-03T02:13:43.566Z,926.16
2017-12-03T02:13:56.686Z,926.11
2017-12-03T02:14:09.299Z,926.09
2017-12-03T02:14:22.393Z,926.09
2017-12-03T02:14:35.499Z,926.07
2017-12-03T02:14:48.619Z,926.1
2017-12-03T02:15:01.717Z,926.12
2017-12-03T02:15:14.808Z,926.12
2017-12-03T02:15:27.920Z,926.14
2017-12-03T02:15:40.582Z,926.17
2017-12-03T02:15:53.242Z,926.16
2017-12-03T02:16:05.907Z,926.19
2017-12-03T02:16:19.049Z,926.19
2017-12-03T02:16:32.168Z,926.19
2017-12-03T02:16:45.264Z,926.2
2017-12-03T02:16:58.369Z,926.15
2017-12-03T02:17:11.519Z,926.18
2017-12-03T02:17:24.218Z,926.19
2017-12-03T02:17:37.280Z,926.15
2017-12-03T02:17:50.444Z,926.2
2017-12-03T02:18:03.087Z,926.22
2017-12-03T02:18:16.288Z,926.18
2017-12-03T02:18:29.415Z,926.16
2017-12-03T02:18:42.041Z,926.17
2017-12-03T02:18:55.083Z,926.19
2017-12-03T02:19:07.240Z,926.16
2017-12-03T02:19:19.887Z,926.16
2017-12-03T02:19:33.020Z,926.18
2017-12-03T02:19:46.093Z,926.15
2017-12-03T02:19:59.190Z,926.19
2017-12-03T02:20:11.801Z,926.17
2017-12-03T02:20:24.943Z,926.13
2017-12-03T02:20:38.111Z,926.13
2017-12-03T02:20:51.166Z,926.16
2017-12-03T02:21:04.281Z,926.15
2017-12-03T02:21:17.385Z,926.13
2017-12-03T02:21:30.543Z,926.12
2017-12-03T02:21:43.714Z,926.06
2017-12-03T02:21:56.825Z,926.07
2017-12-03T02:22:09.485Z,926.11
2017-12-03T02:22:22.115Z,926.1
2017-12-03T02:22:35.218Z,926.07
2017-12-03T02:22:47.869Z,926.08
2017-12-03T02:23:00.940Z,926.09
2017-12-03T02:23:14.038Z,926.03
2017-12-03T02:23:27.166Z,926.11
2017-12-03T02:23:40.223Z,926.11
2017-12-03T02:23:53.354Z,926.07
2017-12-03T02:24:05.502Z,926.04
2017-12-03T02:24:18.101Z,926.11
2017-12-03T02:24:31.247Z,926.09
2017-12-03T02:24:44.376Z,926.15
2017-12-03T02:24:57.471Z,926.1
2017-12-03T02:25:10.549Z,926.14
2017-12-03T02:25:23.661Z,926.12
2017-12-03T02:25:36.778Z,926.13
2017-12-03T02:25:49.884Z,926.11
2017-12-03T02:26:02.972Z,926.12
2017-12-03T02:26:15.641Z,926.15
2017-12-03T02:26:28.314Z,926.13
2017-12-03T02:26:41.378Z,926.1
2017-12-03T02:26:54.466Z,926.11
2017-12-03T02:27:07.077Z,926.11
2017-12-03T02:27:20.164Z,926.08
2017-12-03T02:27:33.231Z,926.06
2017-12-03T02:27:46.373Z,926.1
2017-12-03T02:27:59.435Z,926.13
2017-12-03T02:28:13.152Z,926.07
2017-12-03T02:28:28.486Z,926.08
2017-12-03T02:28:42.394Z,926.04
2017-12-03T02:28:55.481Z,926.08
2017-12-03T02:29:08.079Z,926.06
2017-12-03T02:29:20.624Z,926.04
2017-12-03T02:29:33.739Z,926.07
2017-12-03T02:29:46.852Z,926.07
2017-12-03T02:29:59.479Z,926.1
2017-12-03T02:30:12.132Z,926.09
2017-12-03T02:30:26.158Z,926.04
2017-12-03T02:30:39.359Z,926.07
2017-12-03T02:30:52.469Z,926.09
2017-12-03T02:31:05.081Z,926.06
2017-12-03T02:31:17.801Z,926.04
2017-12-03T02:31:30.928Z,926.04
2017-12-03T02:31:44.051Z,926.06
2017-12-03T02:31:56.713Z,926.02
2017-12-03T02:32:09.417Z,926.04
2017-12-03T02:32:22.540Z,926.07
2017-12-03T02:32:35.710Z,926.06
2017-12-03T02:32:48.844Z,926.03
2017-12-03T02:33:01.404Z,926.09
2017-12-03T02:33:14.568Z,926.09
2017-12-03T02:33:27.671Z,926.06
2017-12-03T02:33:40.344Z,926.07
2017-12-03T02:33:53.487Z,926.01
2017-12-03T02:34:05.660Z,926.02
2017-12-03T02:34:17.810Z,926.04
2017-12-03T02:34:30.990Z,926.03
2017-12-03T02:34:43.643Z,925.99
2017-12-03T02:34:56.779Z,925.99
2017-12-03T02:35:09.426Z,926.01
2017-12-03T02:35:22.518Z,925.99
2017-12-03T02:35:35.585Z,926.02
2017-12-03T02:35:48.698Z,926.05
2017-12-03T02:36:01.748Z,925.99
2017-12-03T02:36:14.429Z,925.98
2017-12-03T02:36:27.554Z,925.97
2017-12-03T02:36:40.154Z,925.96
2017-12-03T02:36:52.357Z,925.99
2017-12-03T02:37:05.003Z,926.02
2017-12-03T02:37:18.145Z,925.97
2017-12-03T02:37:31.268Z,925.92
2017-12-03T02:37:43.957Z,925.91
2017-12-03T02:37:56.611Z,925.94
2017-12-03T02:38:09.670Z,925.91
2017-12-03T02:38:22.743Z,925.89
2017-12-03T02:38:34.928Z,925.93
2017-12-03T02:38:48.004Z,925.93
2017-12-03T02:39:00.595Z,925.93
2017-12-03T02:39:13.644Z,925.89
2017-12-03T02:39:26.802Z,925.91
2017-12-03T02:39:39.941Z,925.87
2017-12-03T02:39:53.028Z,925.9
2017-12-03T02:40:05.750Z,925.88
2017-12-03T02:40:18.378Z,925.88
2017-12-03T02:40:31.544Z,925.87
2017-12-03T02:40:44.598Z,925.88
2017-12-03T02:40:57.754Z,925.86
2017-12-03T02:41:10.856Z,925.89
2017-12-03T02:41:23.976Z,925.88
2017-12-03T02:41:37.064Z,925.92
2017-12-03T02:41:49.710Z,925.89